Terminal Aerodrome Forecast
Issued by NWS

Home | Current Version | Previous Version | Text Only | Print | Product List | Glossary On
Versions: 1 2 3 4 5 6 7 8 9 10 11 12 13 14 15 16
543
FTUS42 KMHX 290348 AAA
TAFOAJ
TAF AMD
KOAJ 290348Z 2904/2924 05007KT P6SM BKN070
      TEMPO 2904/2906 BKN015
     FM290600 VRB04KT P6SM VCSH SCT015 OVC035
     FM291500 12008KT P6SM VCSH OVC035
      AMD LTD TO CLD VIS AND WIND=

USA.gov is the U.S. government's official web portal to all federal, state and local government web resources and services.